createdAt,value
2022-08-23T00:06:52.673Z,31.72
2022-08-23T00:09:23.152Z,31.65
2022-08-23T00:11:53.207Z,31.61
2022-08-23T00:14:33.072Z,31.58
2022-08-23T00:17:04.571Z,31.55
2022-08-23T00:19:33.362Z,31.53
2022-08-23T00:22:03.206Z,31.52
2022-08-23T00:32:25.977Z,31.46
2022-08-23T00:34:53.376Z,31.44
2022-08-23T00:37:22.962Z,31.39
2022-08-23T00:39:52.224Z,31.40
2022-08-23T00:42:52.431Z,31.42
2022-08-23T00:45:42.792Z,31.39
2022-08-23T00:51:52.388Z,31.36
2022-08-23T00:54:23.846Z,31.28
2022-08-23T00:56:53.189Z,31.22
2022-08-23T00:59:24.175Z,31.17
2022-08-23T01:01:53.220Z,31.18
2022-08-23T01:04:23.457Z,31.21
2022-08-23T01:06:55.208Z,31.20
2022-08-23T01:14:34.101Z,31.16
2022-08-23T01:17:06.941Z,31.16
2022-08-23T01:19:43.189Z,31.15
2022-08-23T01:22:32.414Z,31.15
2022-08-23T01:25:08.473Z,31.15
2022-08-23T01:27:57.074Z,31.16
2022-08-23T01:30:26.531Z,31.15
2022-08-23T01:35:36.965Z,31.15
2022-08-23T01:38:04.897Z,31.21
2022-08-23T01:40:33.892Z,31.26
2022-08-23T01:43:06.516Z,31.24
2022-08-23T01:45:34.570Z,31.22
2022-08-23T01:48:03.767Z,31.19
2022-08-23T01:57:06.237Z,31.13
2022-08-23T01:59:36.226Z,31.10
2022-08-23T02:02:03.911Z,31.05
2022-08-23T02:07:30.049Z,31.02
2022-08-23T02:09:59.444Z,31.04
2022-08-23T02:17:56.084Z,30.99
2022-08-23T02:20:23.758Z,30.94
2022-08-23T02:22:57.855Z,30.93
2022-08-23T02:25:25.792Z,30.95
2022-08-23T02:27:53.583Z,30.92
2022-08-23T02:30:24.332Z,30.90
2022-08-23T02:32:59.111Z,30.87
2022-08-23T02:38:22.689Z,30.89
2022-08-23T02:40:52.952Z,30.87
2022-08-23T02:43:39.307Z,30.88
2022-08-23T02:46:09.433Z,30.87
2022-08-23T02:48:37.640Z,30.85
2022-08-23T02:51:07.632Z,30.84
2022-08-23T02:53:37.606Z,30.88
2022-08-23T03:04:13.586Z,30.97
2022-08-23T03:06:43.306Z,30.98
2022-08-23T03:09:13.251Z,30.98
2022-08-23T03:11:45.651Z,31.03
2022-08-23T03:14:17.361Z,31.07
2022-08-23T03:16:44.766Z,31.10
2022-08-23T03:19:17.272Z,31.12
2022-08-23T03:26:12.729Z,31.15
2022-08-23T03:28:45.020Z,31.17
2022-08-23T03:31:16.574Z,31.18
2022-08-23T03:34:18.397Z,31.16
2022-08-23T03:36:45.632Z,31.13
2022-08-23T03:39:15.895Z,31.06
2022-08-23T03:41:44.039Z,31.03
2022-08-23T03:49:23.384Z,31.01
2022-08-23T03:51:55.691Z,31.03
2022-08-23T03:54:24.397Z,31.06
2022-08-23T03:56:59.610Z,31.08
2022-08-23T03:59:36.921Z,31.09
2022-08-23T04:02:10.128Z,31.09
2022-08-23T04:04:39.299Z,31.08
2022-08-23T04:12:36.458Z,31.04
2022-08-23T04:15:05.645Z,31.03
2022-08-23T04:17:40.592Z,31.03
2022-08-23T04:20:10.018Z,31.02
2022-08-23T04:22:46.081Z,31.03
2022-08-23T04:25:33.960Z,31.02
2022-08-23T04:31:00.188Z,30.98
2022-08-23T04:33:33.469Z,30.93
2022-08-23T04:36:06.382Z,30.93
2022-08-23T04:38:39.083Z,30.91
2022-08-23T04:41:26.935Z,30.90
2022-08-23T04:43:57.198Z,30.86
2022-08-23T04:46:26.017Z,30.85
2022-08-23T04:52:54.482Z,30.77
2022-08-23T04:55:24.302Z,30.75
2022-08-23T04:58:03.978Z,30.74
2022-08-23T05:00:36.750Z,30.72
2022-08-23T05:03:04.243Z,30.70
2022-08-23T05:05:33.251Z,30.71
2022-08-23T05:08:00.825Z,30.69
2022-08-23T05:14:36.712Z,30.68
2022-08-23T05:17:04.236Z,30.68
2022-08-23T05:19:34.430Z,30.64
2022-08-23T05:22:04.687Z,30.62
2022-08-23T05:24:54.299Z,30.63
2022-08-23T05:27:24.773Z,30.62
2022-08-23T05:29:56.095Z,30.59
2022-08-23T05:40:18.920Z,30.52
2022-08-23T05:43:01.044Z,30.50
2022-08-23T05:45:30.424Z,30.50
2022-08-23T05:47:58.899Z,30.49
2022-08-23T05:50:33.500Z,30.46
2022-08-23T05:53:04.489Z,30.44
2022-08-23T05:55:34.950Z,30.43
2022-08-23T06:04:37.406Z,30.34
2022-08-23T06:07:05.848Z,30.34
2022-08-23T06:09:34.653Z,30.31
2022-08-23T06:12:05.409Z,30.30
2022-08-23T06:14:38.491Z,30.29
2022-08-23T06:17:05.805Z,30.27
2022-08-23T06:19:33.876Z,30.25
2022-08-23T06:24:50.244Z,30.22
2022-08-23T06:27:19.092Z,30.19
2022-08-23T06:29:46.540Z,30.17
2022-08-23T06:32:44.777Z,30.15
2022-08-23T06:35:48.174Z,30.15
2022-08-23T06:38:24.678Z,30.14
2022-08-23T06:45:17.665Z,30.09
2022-08-23T06:47:49.535Z,30.08
2022-08-23T06:50:19.237Z,30.07
2022-08-23T06:53:07.137Z,30.05
2022-08-23T06:55:59.943Z,30.04
2022-08-23T06:58:35.389Z,29.99
2022-08-23T07:04:17.104Z,29.97
2022-08-23T07:07:07.151Z,29.96
2022-08-23T07:09:40.701Z,29.95
2022-08-23T07:12:15.605Z,29.92
2022-08-23T07:14:44.570Z,29.92
2022-08-23T07:17:14.420Z,29.90
2022-08-23T07:19:44.710Z,29.86
2022-08-23T07:24:56.040Z,29.83
2022-08-23T07:27:24.508Z,29.83
2022-08-23T07:30:03.914Z,29.83
2022-08-23T07:32:32.869Z,29.81
2022-08-23T07:35:10.202Z,29.82
2022-08-23T07:37:46.366Z,29.80
2022-08-23T07:40:20.237Z,29.78
2022-08-23T07:47:35.243Z,29.73
2022-08-23T07:50:04.102Z,29.68
2022-08-23T07:52:37.273Z,29.68
2022-08-23T07:55:05.434Z,29.68
2022-08-23T07:57:50.652Z,29.64
2022-08-23T08:00:39.378Z,29.61
2022-08-23T08:07:20.736Z,29.59
2022-08-23T08:09:58.025Z,29.59
2022-08-23T08:12:26.797Z,29.59
2022-08-23T08:14:59.496Z,29.58
2022-08-23T08:17:37.801Z,29.55
2022-08-23T08:20:30.834Z,29.54
2022-08-23T08:23:04.434Z,29.53
2022-08-23T08:28:46.090Z,29.51
2022-08-23T08:31:16.669Z,29.51
2022-08-23T08:33:44.677Z,29.50
2022-08-23T08:36:37.428Z,29.48
2022-08-23T08:39:08.507Z,29.45
2022-08-23T08:41:45.395Z,29.43
2022-08-23T08:44:33.077Z,29.42
2022-08-23T08:50:03.870Z,29.38
2022-08-23T08:52:43.937Z,29.38
2022-08-23T08:55:26.463Z,29.36
2022-08-23T08:57:57.547Z,29.32
2022-08-23T09:00:27.863Z,29.30
2022-08-23T09:02:59.322Z,29.30
2022-08-23T09:05:39.454Z,29.32
2022-08-23T09:13:14.637Z,29.33
2022-08-23T09:16:04.927Z,29.34
2022-08-23T09:18:34.696Z,29.33
2022-08-23T09:21:06.769Z,29.32
2022-08-23T09:23:39.062Z,29.31
2022-08-23T09:26:34.339Z,29.31
2022-08-23T09:29:15.372Z,29.32
2022-08-23T09:37:28.588Z,29.31
2022-08-23T09:40:17.666Z,29.30
2022-08-23T09:42:47.221Z,29.32
2022-08-23T09:45:26.659Z,29.32
2022-08-23T09:47:54.337Z,29.34
2022-08-23T09:50:28.089Z,29.35
2022-08-23T09:53:01.077Z,29.35
2022-08-23T10:00:43.384Z,29.35
2022-08-23T10:03:28.776Z,29.34
2022-08-23T10:06:04.338Z,29.30
2022-08-23T10:08:42.902Z,29.27
2022-08-23T10:11:18.153Z,29.24
2022-08-23T10:13:47.201Z,29.22
2022-08-23T10:16:38.225Z,29.23
2022-08-23T10:25:13.954Z,29.21
2022-08-23T10:28:19.441Z,29.22
2022-08-23T10:30:59.563Z,29.21
2022-08-23T10:33:41.796Z,29.22
2022-08-23T10:36:18.598Z,29.23
2022-08-23T10:38:51.449Z,29.21
2022-08-23T10:44:10.248Z,29.21
2022-08-23T10:46:45.153Z,29.21
2022-08-23T10:49:19.942Z,29.20
2022-08-23T10:51:49.029Z,29.21
2022-08-23T10:54:34.796Z,29.19
2022-08-23T10:57:07.443Z,29.19
2022-08-23T10:59:38.033Z,29.18
2022-08-23T11:08:34.866Z,29.19
2022-08-23T11:11:29.372Z,29.22
2022-08-23T11:13:57.973Z,29.24
2022-08-23T11:16:31.396Z,29.24
2022-08-23T11:19:00.775Z,29.25
2022-08-23T11:21:39.781Z,29.26
2022-08-23T11:29:29.623Z,29.29
2022-08-23T11:32:38.641Z,29.30
2022-08-23T11:35:12.219Z,29.34
2022-08-23T11:38:08.930Z,29.34
2022-08-23T11:40:50.661Z,29.38
2022-08-23T11:43:34.913Z,29.41
2022-08-23T11:52:29.592Z,29.55
2022-08-23T11:55:15.445Z,29.59
2022-08-23T11:57:55.840Z,29.69
2022-08-23T12:00:26.054Z,29.86
2022-08-23T12:03:07.336Z,30.06
2022-08-23T12:05:37.060Z,30.30
2022-08-23T12:13:54.641Z,30.45
2022-08-23T12:16:29.492Z,30.37
2022-08-23T12:19:00.143Z,30.30
2022-08-23T12:21:50.805Z,30.30
2022-08-23T12:24:34.351Z,30.30
2022-08-23T12:27:07.050Z,30.32
2022-08-23T12:29:40.776Z,30.33
2022-08-23T12:36:24.710Z,30.26
2022-08-23T12:38:56.647Z,30.20
2022-08-23T12:41:28.127Z,30.14
2022-08-23T12:44:01.265Z,30.11
2022-08-23T12:46:38.703Z,30.10
2022-08-23T12:49:09.187Z,30.10
2022-08-23T12:51:48.169Z,30.14
2022-08-23T12:59:40.892Z,30.38
2022-08-23T13:02:28.112Z,30.47
2022-08-23T13:04:58.780Z,30.56
2022-08-23T13:07:26.652Z,30.63
2022-08-23T13:10:00.028Z,30.69
2022-08-23T13:12:27.874Z,30.74
2022-08-23T13:17:44.425Z,30.90
2022-08-23T13:20:13.835Z,31.00
2022-08-23T13:23:01.291Z,31.10
2022-08-23T13:25:34.184Z,31.19
2022-08-23T13:28:05.185Z,31.31
2022-08-23T13:30:34.451Z,31.48
2022-08-23T13:33:07.712Z,31.84
2022-08-23T13:39:35.321Z,32.98
2022-08-23T13:42:04.781Z,33.37
2022-08-23T13:44:37.778Z,33.59
2022-08-23T13:47:06.569Z,33.75
2022-08-23T13:49:37.936Z,34.04
2022-08-23T13:52:37.916Z,34.19
2022-08-23T13:58:26.820Z,34.84
2022-08-23T14:00:55.712Z,35.00
2022-08-23T14:03:25.998Z,35.26
2022-08-23T14:05:55.089Z,35.23
2022-08-23T14:08:24.725Z,35.08
2022-08-23T14:10:52.095Z,35.07
2022-08-23T14:13:25.214Z,35.16
2022-08-23T14:15:56.389Z,35.42
2022-08-23T14:23:37.402Z,34.38
2022-08-23T14:26:05.605Z,34.04
2022-08-23T14:28:34.347Z,33.81
2022-08-23T14:31:02.504Z,33.71
2022-08-23T14:33:33.593Z,33.64
2022-08-23T14:36:00.676Z,33.59
2022-08-23T14:38:27.668Z,33.55
2022-08-23T14:45:20.932Z,34.02
2022-08-23T14:47:48.017Z,34.19
2022-08-23T14:50:17.765Z,34.55
2022-08-23T14:52:46.718Z,34.81
2022-08-23T14:55:21.049Z,35.09
2022-08-23T14:57:51.605Z,35.55
2022-08-23T15:00:20.161Z,36.02
2022-08-23T15:07:57.125Z,37.01
2022-08-23T15:13:26.114Z,37.68
2022-08-23T15:15:57.514Z,38.01
2022-08-23T15:18:26.219Z,38.28
2022-08-23T15:20:57.546Z,38.37
2022-08-23T15:23:25.536Z,38.47
2022-08-23T15:28:27.308Z,38.74
2022-08-23T15:30:59.795Z,38.61
2022-08-23T15:33:30.709Z,38.47
2022-08-23T15:36:01.697Z,38.51
2022-08-23T15:38:38.131Z,38.46
2022-08-23T15:41:05.872Z,38.45
2022-08-23T15:43:36.066Z,38.57
2022-08-23T15:46:07.890Z,38.78
2022-08-23T15:53:58.152Z,38.55
2022-08-23T15:56:39.829Z,38.47
2022-08-23T15:59:09.537Z,38.20
2022-08-23T16:01:38.526Z,38.18
2022-08-23T16:04:05.849Z,38.05
2022-08-23T16:06:36.634Z,38.08
2022-08-23T16:09:06.033Z,38.17
2022-08-23T16:14:16.078Z,38.54
2022-08-23T16:16:46.591Z,38.62
2022-08-23T16:19:20.006Z,38.48
2022-08-23T16:21:48.676Z,38.59
2022-08-23T16:24:18.108Z,38.46
2022-08-23T16:26:51.677Z,38.31
2022-08-23T16:29:19.383Z,38.33
2022-08-23T16:36:39.692Z,38.03
2022-08-23T16:39:07.058Z,38.22
2022-08-23T16:41:36.164Z,38.32
2022-08-23T16:44:05.594Z,38.12
2022-08-23T16:46:38.035Z,37.81
2022-08-23T16:49:05.769Z,37.62
2022-08-23T16:51:34.566Z,37.83
2022-08-23T16:58:25.951Z,38.84
2022-08-23T17:00:54.299Z,38.64
2022-08-23T17:03:21.443Z,38.74
2022-08-23T17:05:48.725Z,38.95
2022-08-23T17:08:16.460Z,38.93
2022-08-23T17:10:46.304Z,38.93
2022-08-23T17:13:15.122Z,38.84
2022-08-23T17:21:02.354Z,38.96
2022-08-23T17:23:31.332Z,38.99
2022-08-23T17:25:59.761Z,39.16
2022-08-23T17:28:27.103Z,39.16
2022-08-23T17:30:58.573Z,39.13
2022-08-23T17:33:25.997Z,39.13
2022-08-23T17:35:55.152Z,38.86
2022-08-23T17:43:28.378Z,38.26
2022-08-23T17:45:58.641Z,38.29
2022-08-23T17:48:26.072Z,38.27
2022-08-23T17:50:56.029Z,38.57
2022-08-23T17:53:25.167Z,38.69
2022-08-23T17:55:52.289Z,38.75
2022-08-23T17:58:25.181Z,38.88
2022-08-23T18:03:45.668Z,39.09
2022-08-23T18:06:16.511Z,39.04
2022-08-23T18:08:47.114Z,39.00
2022-08-23T18:11:18.107Z,39.01
2022-08-23T18:13:46.017Z,39.18
2022-08-23T18:16:15.775Z,39.41
2022-08-23T18:18:46.033Z,39.22
2022-08-23T18:26:00.794Z,38.94
2022-08-23T18:28:27.971Z,38.90
2022-08-23T18:30:58.126Z,39.09
2022-08-23T18:33:31.833Z,39.38
2022-08-23T18:36:17.700Z,39.75
2022-08-23T18:38:46.614Z,39.72
2022-08-23T18:41:17.710Z,39.54
2022-08-23T18:51:46.532Z,39.02
2022-08-23T18:54:15.077Z,38.98
2022-08-23T18:56:42.482Z,38.96
2022-08-23T18:59:10.902Z,39.24
2022-08-23T19:01:40.789Z,39.43
2022-08-23T19:04:09.455Z,39.30
2022-08-23T19:06:38.571Z,39.01
2022-08-23T19:13:47.232Z,38.63
2022-08-23T19:16:17.816Z,38.58
2022-08-23T19:18:46.845Z,38.62
2022-08-23T19:21:18.759Z,38.72
2022-08-23T19:23:47.144Z,38.71
2022-08-23T19:26:17.825Z,38.62
2022-08-23T19:28:46.210Z,38.56
2022-08-23T19:35:00.328Z,38.15
2022-08-23T19:37:27.593Z,38.14
2022-08-23T19:39:58.302Z,38.11
2022-08-23T19:42:26.699Z,38.10
2022-08-23T19:44:56.066Z,38.05
2022-08-23T19:47:28.638Z,38.07
2022-08-23T19:49:58.361Z,37.93
2022-08-23T20:01:21.426Z,37.29
2022-08-23T20:03:48.573Z,37.14
2022-08-23T20:27:23.834Z,37.20
2022-08-23T20:30:01.394Z,37.19
2022-08-23T20:32:29.743Z,37.00
2022-08-23T20:37:39.280Z,36.87
2022-08-23T20:40:12.155Z,36.84
2022-08-23T20:42:39.341Z,36.80
2022-08-23T20:45:08.649Z,36.80
2022-08-23T20:47:36.899Z,36.75
2022-08-23T20:50:04.124Z,36.63
2022-08-23T20:52:34.540Z,36.52
2022-08-23T20:59:50.779Z,36.72
2022-08-23T21:02:19.090Z,36.61
2022-08-23T21:04:48.170Z,36.46
2022-08-23T21:07:16.418Z,36.26
2022-08-23T21:09:43.609Z,36.09
2022-08-23T21:12:10.681Z,35.99
2022-08-23T21:14:37.965Z,35.99
2022-08-23T21:24:47.262Z,36.01
2022-08-23T21:27:17.038Z,36.12
2022-08-23T21:29:47.861Z,36.06
2022-08-23T21:32:15.969Z,35.81
2022-08-23T21:34:43.917Z,35.50
2022-08-23T21:37:11.495Z,35.24
2022-08-23T21:39:39.110Z,34.94
2022-08-23T21:47:13.525Z,34.47
2022-08-23T21:49:40.582Z,34.38
2022-08-23T21:52:08.540Z,34.39
2022-08-23T21:54:42.827Z,34.39
2022-08-23T21:57:10.943Z,34.29
2022-08-23T21:59:38.638Z,34.19
2022-08-23T22:02:09.585Z,34.11
2022-08-23T22:04:39.121Z,34.00
2022-08-23T22:11:35.274Z,33.91
2022-08-23T22:14:03.354Z,33.85
2022-08-23T22:16:30.384Z,33.73
2022-08-23T22:19:00.827Z,33.63
2022-08-23T22:21:28.609Z,33.56
2022-08-23T22:24:03.006Z,33.47
2022-08-23T22:26:30.261Z,33.35
2022-08-23T22:32:57.691Z,33.17
2022-08-23T22:35:24.958Z,33.18
2022-08-23T22:38:12.847Z,33.21
2022-08-23T22:40:47.923Z,33.14
2022-08-23T22:43:17.908Z,33.06
2022-08-23T22:45:49.663Z,32.97
2022-08-23T22:48:17.534Z,32.88
2022-08-23T22:53:24.930Z,32.75
2022-08-23T22:55:53.874Z,32.69
2022-08-23T22:58:20.883Z,32.70
2022-08-23T23:00:48.414Z,32.70
2022-08-23T23:03:17.403Z,32.77
2022-08-23T23:05:44.849Z,32.80
2022-08-23T23:08:29.443Z,32.85
2022-08-23T23:15:59.909Z,32.64
2022-08-23T23:18:28.936Z,32.63
2022-08-23T23:21:00.250Z,32.63
2022-08-23T23:23:28.605Z,32.60
2022-08-23T23:25:57.454Z,32.56
2022-08-23T23:28:24.869Z,32.54
2022-08-23T23:30:54.213Z,32.54
2022-08-23T23:36:08.822Z,32.38
2022-08-23T23:38:38.362Z,32.32
2022-08-23T23:41:07.438Z,32.28
2022-08-23T23:43:34.913Z,32.20
2022-08-23T23:46:10.269Z,32.15
2022-08-23T23:48:42.640Z,32.17
2022-08-23T23:51:14.183Z,32.22
